sensor_id;sensor_type;location;lat;lon;timestamp;P1;durP1;ratioP1;P2;durP2;ratioP2
15858;SDS011;8029;52.202;7.308;2023-03-01T00:00:17;3.23;;;2.93;;
15858;SDS011;8029;52.202;7.308;2023-03-01T00:02:43;2.90;;;2.70;;
15858;SDS011;8029;52.202;7.308;2023-03-01T00:05:09;4.00;;;2.73;;
15858;SDS011;8029;52.202;7.308;2023-03-01T00:07:35;3.43;;;3.17;;
15858;SDS011;8029;52.202;7.308;2023-03-01T00:10:01;3.03;;;2.73;;
15858;SDS011;8029;52.202;7.308;2023-03-01T00:12:27;3.73;;;3.33;;
15858;SDS011;8029;52.202;7.308;2023-03-01T00:14:53;2.17;;;2.07;;
15858;SDS011;8029;52.202;7.308;2023-03-01T00:17:19;2.90;;;2.70;;
15858;SDS011;8029;52.202;7.308;2023-03-01T00:19:45;3.43;;;3.13;;
15858;SDS011;8029;52.202;7.308;2023-03-01T00:22:11;3.03;;;2.70;;
15858;SDS011;8029;52.202;7.308;2023-03-01T00:24:37;2.87;;;2.67;;
15858;SDS011;8029;52.202;7.308;2023-03-01T00:27:03;2.90;;;2.70;;
15858;SDS011;8029;52.202;7.308;2023-03-01T00:29:29;3.77;;;3.00;;
15858;SDS011;8029;52.202;7.308;2023-03-01T00:31:55;5.60;;;3.20;;
15858;SDS011;8029;52.202;7.308;2023-03-01T00:34:20;3.13;;;2.83;;
15858;SDS011;8029;52.202;7.308;2023-03-01T00:36:46;2.70;;;2.50;;
15858;SDS011;8029;52.202;7.308;2023-03-01T00:39:13;3.07;;;2.83;;
15858;SDS011;8029;52.202;7.308;2023-03-01T00:41:40;4.17;;;3.77;;
15858;SDS011;8029;52.202;7.308;2023-03-01T00:44:06;3.97;;;3.57;;
15858;SDS011;8029;52.202;7.308;2023-03-01T00:46:32;3.43;;;2.73;;
15858;SDS011;8029;52.202;7.308;2023-03-01T00:48:58;3.73;;;3.27;;
15858;SDS011;8029;52.202;7.308;2023-03-01T00:51:27;3.43;;;3.17;;
15858;SDS011;8029;52.202;7.308;2023-03-01T00:53:54;2.83;;;2.63;;
15858;SDS011;8029;52.202;7.308;2023-03-01T00:56:21;2.60;;;2.23;;
15858;SDS011;8029;52.202;7.308;2023-03-01T00:58:47;2.50;;;2.30;;
15858;SDS011;8029;52.202;7.308;2023-03-01T01:01:15;3.30;;;3.00;;
15858;SDS011;8029;52.202;7.308;2023-03-01T01:06:24;6.97;;;4.30;;
15858;SDS011;8029;52.202;7.308;2023-03-01T01:08:51;2.47;;;2.27;;
15858;SDS011;8029;52.202;7.308;2023-03-01T01:11:17;3.37;;;3.07;;
15858;SDS011;8029;52.202;7.308;2023-03-01T01:13:44;3.27;;;3.07;;
15858;SDS011;8029;52.202;7.308;2023-03-01T01:16:11;5.10;;;4.00;;
15858;SDS011;8029;52.202;7.308;2023-03-01T01:18:37;3.07;;;2.63;;
15858;SDS011;8029;52.202;7.308;2023-03-01T01:21:07;3.50;;;3.20;;
15858;SDS011;8029;52.202;7.308;2023-03-01T01:23:33;3.13;;;2.90;;
15858;SDS011;8029;52.202;7.308;2023-03-01T01:26:03;3.33;;;3.03;;
15858;SDS011;8029;52.202;7.308;2023-03-01T01:28:30;3.77;;;3.47;;
15858;SDS011;8029;52.202;7.308;2023-03-01T01:30:56;3.57;;;3.00;;
15858;SDS011;8029;52.202;7.308;2023-03-01T01:33:22;3.63;;;3.33;;
15858;SDS011;8029;52.202;7.308;2023-03-01T01:35:48;3.27;;;2.97;;
15858;SDS011;8029;52.202;7.308;2023-03-01T01:38:14;3.40;;;3.10;;
15858;SDS011;8029;52.202;7.308;2023-03-01T01:40:43;4.40;;;3.17;;
15858;SDS011;8029;52.202;7.308;2023-03-01T01:43:20;3.00;;;2.70;;
15858;SDS011;8029;52.202;7.308;2023-03-01T01:45:46;2.63;;;2.47;;
15858;SDS011;8029;52.202;7.308;2023-03-01T01:48:14;3.60;;;3.10;;
15858;SDS011;8029;52.202;7.308;2023-03-01T01:50:42;2.77;;;2.53;;
15858;SDS011;8029;52.202;7.308;2023-03-01T01:53:11;3.17;;;2.87;;
15858;SDS011;8029;52.202;7.308;2023-03-01T01:55:39;5.97;;;4.10;;
15858;SDS011;8029;52.202;7.308;2023-03-01T01:58:07;2.97;;;2.77;;
15858;SDS011;8029;52.202;7.308;2023-03-01T02:00:34;3.77;;;3.47;;
15858;SDS011;8029;52.202;7.308;2023-03-01T02:03:02;3.27;;;2.97;;
15858;SDS011;8029;52.202;7.308;2023-03-01T02:05:33;3.33;;;2.87;;
15858;SDS011;8029;52.202;7.308;2023-03-01T02:08:02;2.50;;;2.30;;
15858;SDS011;8029;52.202;7.308;2023-03-01T02:10:28;3.83;;;3.20;;
15858;SDS011;8029;52.202;7.308;2023-03-01T02:12:55;10.30;;;2.93;;
15858;SDS011;8029;52.202;7.308;2023-03-01T02:15:21;3.67;;;3.37;;
15858;SDS011;8029;52.202;7.308;2023-03-01T02:17:48;2.30;;;2.10;;
15858;SDS011;8029;52.202;7.308;2023-03-01T02:22:43;3.10;;;2.70;;
15858;SDS011;8029;52.202;7.308;2023-03-01T02:30:13;4.67;;;4.03;;
15858;SDS011;8029;52.202;7.308;2023-03-01T02:32:40;3.70;;;3.03;;
15858;SDS011;8029;52.202;7.308;2023-03-01T02:35:08;5.07;;;3.43;;
15858;SDS011;8029;52.202;7.308;2023-03-01T02:37:34;3.67;;;3.37;;
15858;SDS011;8029;52.202;7.308;2023-03-01T02:40:02;3.23;;;2.93;;
15858;SDS011;8029;52.202;7.308;2023-03-01T02:42:30;3.60;;;3.17;;
15858;SDS011;8029;52.202;7.308;2023-03-01T02:44:58;3.17;;;2.97;;
15858;SDS011;8029;52.202;7.308;2023-03-01T02:47:24;3.53;;;2.97;;
15858;SDS011;8029;52.202;7.308;2023-03-01T02:49:50;3.60;;;3.30;;
15858;SDS011;8029;52.202;7.308;2023-03-01T02:52:19;2.43;;;2.33;;
15858;SDS011;8029;52.202;7.308;2023-03-01T02:54:51;3.27;;;3.00;;
15858;SDS011;8029;52.202;7.308;2023-03-01T02:57:20;3.73;;;3.23;;
15858;SDS011;8029;52.202;7.308;2023-03-01T02:59:46;3.23;;;2.93;;
15858;SDS011;8029;52.202;7.308;2023-03-01T03:02:23;3.47;;;3.17;;
15858;SDS011;8029;52.202;7.308;2023-03-01T03:05:06;3.10;;;2.90;;
15858;SDS011;8029;52.202;7.308;2023-03-01T03:07:33;2.20;;;2.10;;
15858;SDS011;8029;52.202;7.308;2023-03-01T03:10:00;6.77;;;4.03;;
15858;SDS011;8029;52.202;7.308;2023-03-01T03:12:26;2.60;;;2.40;;
15858;SDS011;8029;52.202;7.308;2023-03-01T03:14:52;3.73;;;2.90;;
15858;SDS011;8029;52.202;7.308;2023-03-01T03:17:18;3.90;;;3.50;;
15858;SDS011;8029;52.202;7.308;2023-03-01T03:19:44;4.00;;;3.60;;
15858;SDS011;8029;52.202;7.308;2023-03-01T03:22:10;1.70;;;1.60;;
15858;SDS011;8029;52.202;7.308;2023-03-01T03:24:36;2.60;;;2.40;;
15858;SDS011;8029;52.202;7.308;2023-03-01T03:27:03;3.00;;;2.80;;
15858;SDS011;8029;52.202;7.308;2023-03-01T03:29:29;2.80;;;2.53;;
15858;SDS011;8029;52.202;7.308;2023-03-01T03:31:55;3.07;;;2.77;;
15858;SDS011;8029;52.202;7.308;2023-03-01T03:34:21;2.60;;;2.40;;
15858;SDS011;8029;52.202;7.308;2023-03-01T03:36:47;6.03;;;2.50;;
15858;SDS011;8029;52.202;7.308;2023-03-01T03:39:13;3.60;;;3.17;;
15858;SDS011;8029;52.202;7.308;2023-03-01T03:41:39;3.47;;;3.17;;
15858;SDS011;8029;52.202;7.308;2023-03-01T03:44:05;3.47;;;2.93;;
15858;SDS011;8029;52.202;7.308;2023-03-01T03:46:31;7.17;;;3.77;;
15858;SDS011;8029;52.202;7.308;2023-03-01T03:48:57;4.17;;;3.77;;
15858;SDS011;8029;52.202;7.308;2023-03-01T03:51:23;3.53;;;3.07;;
15858;SDS011;8029;52.202;7.308;2023-03-01T03:53:49;3.73;;;3.23;;
15858;SDS011;8029;52.202;7.308;2023-03-01T03:56:15;3.20;;;2.90;;
15858;SDS011;8029;52.202;7.308;2023-03-01T03:58:41;3.77;;;3.27;;
15858;SDS011;8029;52.202;7.308;2023-03-01T04:01:07;4.23;;;3.83;;
15858;SDS011;8029;52.202;7.308;2023-03-01T04:03:33;2.30;;;2.20;;
15858;SDS011;8029;52.202;7.308;2023-03-01T04:06:00;3.07;;;2.80;;
15858;SDS011;8029;52.202;7.308;2023-03-01T04:08:26;4.53;;;4.07;;
15858;SDS011;8029;52.202;7.308;2023-03-01T04:10:56;2.87;;;2.47;;
15858;SDS011;8029;52.202;7.308;2023-03-01T04:13:23;3.50;;;3.17;;
15858;SDS011;8029;52.202;7.308;2023-03-01T04:15:50;3.73;;;3.43;;
15858;SDS011;8029;52.202;7.308;2023-03-01T04:18:17;3.80;;;3.37;;
15858;SDS011;8029;52.202;7.308;2023-03-01T04:20:44;3.60;;;3.20;;
15858;SDS011;8029;52.202;7.308;2023-03-01T04:28:19;2.83;;;2.63;;
15858;SDS011;8029;52.202;7.308;2023-03-01T04:30:46;5.23;;;3.63;;
15858;SDS011;8029;52.202;7.308;2023-03-01T04:33:12;3.27;;;2.73;;
15858;SDS011;8029;52.202;7.308;2023-03-01T04:35:38;3.00;;;2.77;;
15858;SDS011;8029;52.202;7.308;2023-03-01T04:38:05;3.40;;;3.10;;
15858;SDS011;8029;52.202;7.308;2023-03-01T04:40:31;2.57;;;2.37;;
15858;SDS011;8029;52.202;7.308;2023-03-01T04:42:57;5.63;;;3.67;;
15858;SDS011;8029;52.202;7.308;2023-03-01T04:45:23;3.43;;;3.13;;
15858;SDS011;8029;52.202;7.308;2023-03-01T04:47:49;3.00;;;2.77;;
15858;SDS011;8029;52.202;7.308;2023-03-01T04:50:17;6.20;;;3.97;;
15858;SDS011;8029;52.202;7.308;2023-03-01T04:52:45;5.00;;;3.70;;
15858;SDS011;8029;52.202;7.308;2023-03-01T04:55:11;2.53;;;2.33;;
15858;SDS011;8029;52.202;7.308;2023-03-01T04:57:37;4.90;;;3.30;;
15858;SDS011;8029;52.202;7.308;2023-03-01T05:00:04;7.67;;;4.70;;
15858;SDS011;8029;52.202;7.308;2023-03-01T05:02:45;2.63;;;2.43;;
15858;SDS011;8029;52.202;7.308;2023-03-01T05:05:11;3.43;;;3.07;;
15858;SDS011;8029;52.202;7.308;2023-03-01T05:07:38;6.40;;;4.13;;
15858;SDS011;8029;52.202;7.308;2023-03-01T05:10:04;3.47;;;3.17;;
15858;SDS011;8029;52.202;7.308;2023-03-01T05:12:30;3.87;;;3.57;;
15858;SDS011;8029;52.202;7.308;2023-03-01T05:14:56;2.97;;;2.77;;
15858;SDS011;8029;52.202;7.308;2023-03-01T05:17:23;4.07;;;3.43;;
15858;SDS011;8029;52.202;7.308;2023-03-01T05:19:49;2.50;;;2.30;;
15858;SDS011;8029;52.202;7.308;2023-03-01T05:22:15;4.27;;;2.70;;
15858;SDS011;8029;52.202;7.308;2023-03-01T05:24:41;3.43;;;3.13;;
15858;SDS011;8029;52.202;7.308;2023-03-01T05:27:07;3.10;;;2.80;;
15858;SDS011;8029;52.202;7.308;2023-03-01T05:29:33;5.30;;;3.87;;
15858;SDS011;8029;52.202;7.308;2023-03-01T05:32:00;4.20;;;3.80;;
15858;SDS011;8029;52.202;7.308;2023-03-01T05:34:28;2.80;;;2.60;;
15858;SDS011;8029;52.202;7.308;2023-03-01T05:36:55;4.83;;;4.07;;
15858;SDS011;8029;52.202;7.308;2023-03-01T05:39:26;3.13;;;2.83;;
15858;SDS011;8029;52.202;7.308;2023-03-01T05:41:56;4.93;;;3.47;;
15858;SDS011;8029;52.202;7.308;2023-03-01T05:44:22;4.50;;;3.10;;
15858;SDS011;8029;52.202;7.308;2023-03-01T05:46:48;2.27;;;2.13;;
15858;SDS011;8029;52.202;7.308;2023-03-01T05:49:14;4.33;;;3.90;;
15858;SDS011;8029;52.202;7.308;2023-03-01T05:51:41;3.77;;;3.07;;
15858;SDS011;8029;52.202;7.308;2023-03-01T05:54:07;4.40;;;4.00;;
15858;SDS011;8029;52.202;7.308;2023-03-01T05:56:34;5.63;;;3.13;;
15858;SDS011;8029;52.202;7.308;2023-03-01T05:59:00;4.23;;;3.07;;
15858;SDS011;8029;52.202;7.308;2023-03-01T06:01:26;3.23;;;2.50;;
15858;SDS011;8029;52.202;7.308;2023-03-01T06:03:52;6.33;;;3.60;;
15858;SDS011;8029;52.202;7.308;2023-03-01T06:06:18;3.10;;;2.80;;
15858;SDS011;8029;52.202;7.308;2023-03-01T06:08:44;3.03;;;2.80;;
15858;SDS011;8029;52.202;7.308;2023-03-01T06:11:10;4.07;;;3.13;;
15858;SDS011;8029;52.202;7.308;2023-03-01T06:13:36;2.90;;;2.70;;
15858;SDS011;8029;52.202;7.308;2023-03-01T06:16:06;5.73;;;3.87;;
15858;SDS011;8029;52.202;7.308;2023-03-01T06:18:32;3.77;;;3.47;;
15858;SDS011;8029;52.202;7.308;2023-03-01T06:20:58;22.90;;;3.77;;
15858;SDS011;8029;52.202;7.308;2023-03-01T06:23:24;2.50;;;2.33;;
15858;SDS011;8029;52.202;7.308;2023-03-01T06:25:50;4.17;;;3.33;;
15858;SDS011;8029;52.202;7.308;2023-03-01T06:28:16;4.00;;;3.53;;
15858;SDS011;8029;52.202;7.308;2023-03-01T06:30:42;8.03;;;4.00;;
15858;SDS011;8029;52.202;7.308;2023-03-01T06:33:08;3.20;;;2.90;;
15858;SDS011;8029;52.202;7.308;2023-03-01T06:35:34;4.80;;;3.70;;
15858;SDS011;8029;52.202;7.308;2023-03-01T06:38:00;3.47;;;3.17;;
15858;SDS011;8029;52.202;7.308;2023-03-01T06:40:27;3.50;;;3.17;;
15858;SDS011;8029;52.202;7.308;2023-03-01T06:42:53;5.17;;;4.07;;
15858;SDS011;8029;52.202;7.308;2023-03-01T06:45:19;5.57;;;3.93;;
15858;SDS011;8029;52.202;7.308;2023-03-01T06:47:45;7.13;;;3.60;;
15858;SDS011;8029;52.202;7.308;2023-03-01T06:50:12;4.03;;;3.43;;
15858;SDS011;8029;52.202;7.308;2023-03-01T06:52:38;4.17;;;3.40;;
15858;SDS011;8029;52.202;7.308;2023-03-01T06:55:04;5.97;;;3.93;;
15858;SDS011;8029;52.202;7.308;2023-03-01T06:57:30;6.27;;;4.37;;
15858;SDS011;8029;52.202;7.308;2023-03-01T06:59:56;4.97;;;4.03;;
15858;SDS011;8029;52.202;7.308;2023-03-01T07:02:22;4.93;;;4.37;;
15858;SDS011;8029;52.202;7.308;2023-03-01T07:04:52;6.27;;;4.80;;
15858;SDS011;8029;52.202;7.308;2023-03-01T07:07:18;5.97;;;5.37;;
15858;SDS011;8029;52.202;7.308;2023-03-01T07:09:45;15.63;;;5.17;;
15858;SDS011;8029;52.202;7.308;2023-03-01T07:12:11;4.73;;;4.33;;
15858;SDS011;8029;52.202;7.308;2023-03-01T07:14:37;4.33;;;3.80;;
15858;SDS011;8029;52.202;7.308;2023-03-01T07:17:03;6.43;;;3.97;;
15858;SDS011;8029;52.202;7.308;2023-03-01T07:19:29;5.83;;;5.23;;
15858;SDS011;8029;52.202;7.308;2023-03-01T07:21:55;3.83;;;3.53;;
15858;SDS011;8029;52.202;7.308;2023-03-01T07:24:21;4.93;;;4.40;;
15858;SDS011;8029;52.202;7.308;2023-03-01T07:26:48;5.70;;;5.10;;
15858;SDS011;8029;52.202;7.308;2023-03-01T07:29:15;4.47;;;4.07;;
15858;SDS011;8029;52.202;7.308;2023-03-01T07:31:41;4.93;;;4.53;;
15858;SDS011;8029;52.202;7.308;2023-03-01T07:34:07;4.43;;;4.03;;
15858;SDS011;8029;52.202;7.308;2023-03-01T07:36:33;4.40;;;4.00;;
15858;SDS011;8029;52.202;7.308;2023-03-01T07:38:59;5.00;;;4.53;;
15858;SDS011;8029;52.202;7.308;2023-03-01T07:41:27;5.00;;;4.47;;
15858;SDS011;8029;52.202;7.308;2023-03-01T07:43:53;7.83;;;5.07;;
15858;SDS011;8029;52.202;7.308;2023-03-01T07:46:19;5.27;;;4.63;;
15858;SDS011;8029;52.202;7.308;2023-03-01T07:48:45;4.60;;;4.23;;
15858;SDS011;8029;52.202;7.308;2023-03-01T07:51:11;5.40;;;4.90;;
15858;SDS011;8029;52.202;7.308;2023-03-01T07:53:37;5.87;;;5.13;;
15858;SDS011;8029;52.202;7.308;2023-03-01T07:56:04;10.60;;;5.97;;
15858;SDS011;8029;52.202;7.308;2023-03-01T07:58:30;6.63;;;4.80;;
15858;SDS011;8029;52.202;7.308;2023-03-01T08:01:00;4.50;;;4.10;;
15858;SDS011;8029;52.202;7.308;2023-03-01T08:03:26;4.33;;;3.67;;
15858;SDS011;8029;52.202;7.308;2023-03-01T08:05:52;4.83;;;3.67;;
15858;SDS011;8029;52.202;7.308;2023-03-01T08:08:18;4.33;;;3.90;;
15858;SDS011;8029;52.202;7.308;2023-03-01T08:10:44;5.00;;;3.90;;
15858;SDS011;8029;52.202;7.308;2023-03-01T08:13:10;3.40;;;3.10;;
15858;SDS011;8029;52.202;7.308;2023-03-01T08:15:36;3.50;;;3.20;;
15858;SDS011;8029;52.202;7.308;2023-03-01T08:18:02;4.37;;;3.97;;
15858;SDS011;8029;52.202;7.308;2023-03-01T08:20:28;3.67;;;3.37;;
15858;SDS011;8029;52.202;7.308;2023-03-01T08:22:54;5.83;;;3.97;;
15858;SDS011;8029;52.202;7.308;2023-03-01T08:25:20;4.13;;;3.73;;
15858;SDS011;8029;52.202;7.308;2023-03-01T08:27:46;4.23;;;3.53;;
15858;SDS011;8029;52.202;7.308;2023-03-01T08:30:12;4.80;;;3.43;;
15858;SDS011;8029;52.202;7.308;2023-03-01T08:32:38;3.57;;;3.27;;
15858;SDS011;8029;52.202;7.308;2023-03-01T08:35:05;4.83;;;4.17;;
15858;SDS011;8029;52.202;7.308;2023-03-01T08:37:31;4.83;;;4.07;;
15858;SDS011;8029;52.202;7.308;2023-03-01T08:39:58;3.97;;;3.57;;
15858;SDS011;8029;52.202;7.308;2023-03-01T08:42:24;3.67;;;3.37;;
15858;SDS011;8029;52.202;7.308;2023-03-01T08:44:50;3.87;;;3.33;;
15858;SDS011;8029;52.202;7.308;2023-03-01T08:47:16;2.53;;;2.33;;
15858;SDS011;8029;52.202;7.308;2023-03-01T08:49:42;3.17;;;2.87;;
15858;SDS011;8029;52.202;7.308;2023-03-01T08:52:08;3.20;;;2.90;;
15858;SDS011;8029;52.202;7.308;2023-03-01T08:54:34;2.77;;;2.57;;
15858;SDS011;8029;52.202;7.308;2023-03-01T08:57:01;3.30;;;3.00;;
15858;SDS011;8029;52.202;7.308;2023-03-01T08:59:27;2.00;;;1.90;;
15858;SDS011;8029;52.202;7.308;2023-03-01T09:01:54;3.37;;;3.07;;
15858;SDS011;8029;52.202;7.308;2023-03-01T09:04:20;4.57;;;2.70;;
15858;SDS011;8029;52.202;7.308;2023-03-01T09:06:46;3.10;;;2.83;;
15858;SDS011;8029;52.202;7.308;2023-03-01T09:09:14;2.70;;;2.50;;
15858;SDS011;8029;52.202;7.308;2023-03-01T09:11:41;3.10;;;2.87;;
15858;SDS011;8029;52.202;7.308;2023-03-01T09:14:08;3.37;;;3.07;;
15858;SDS011;8029;52.202;7.308;2023-03-01T09:16:34;2.70;;;2.40;;
15858;SDS011;8029;52.202;7.308;2023-03-01T09:19:03;2.30;;;2.10;;
15858;SDS011;8029;52.202;7.308;2023-03-01T09:21:29;2.37;;;2.17;;
15858;SDS011;8029;52.202;7.308;2023-03-01T09:23:55;3.43;;;2.57;;
15858;SDS011;8029;52.202;7.308;2023-03-01T09:26:22;4.03;;;2.40;;
15858;SDS011;8029;52.202;7.308;2023-03-01T09:28:48;3.00;;;2.70;;
15858;SDS011;8029;52.202;7.308;2023-03-01T09:31:15;2.90;;;2.60;;
15858;SDS011;8029;52.202;7.308;2023-03-01T09:33:42;4.33;;;2.37;;
15858;SDS011;8029;52.202;7.308;2023-03-01T09:36:10;4.63;;;3.07;;
15858;SDS011;8029;52.202;7.308;2023-03-01T09:38:37;4.80;;;3.63;;
15858;SDS011;8029;52.202;7.308;2023-03-01T09:41:08;2.83;;;2.47;;
15858;SDS011;8029;52.202;7.308;2023-03-01T09:43:46;3.13;;;2.83;;
15858;SDS011;8029;52.202;7.308;2023-03-01T09:46:13;2.37;;;2.20;;
15858;SDS011;8029;52.202;7.308;2023-03-01T09:49:02;2.70;;;2.50;;
15858;SDS011;8029;52.202;7.308;2023-03-01T09:51:34;2.83;;;2.50;;
15858;SDS011;8029;52.202;7.308;2023-03-01T09:54:01;1.80;;;1.70;;
15858;SDS011;8029;52.202;7.308;2023-03-01T09:56:41;2.00;;;1.90;;
15858;SDS011;8029;52.202;7.308;2023-03-01T10:06:41;2.37;;;2.17;;
15858;SDS011;8029;52.202;7.308;2023-03-01T10:09:11;1.90;;;1.80;;
15858;SDS011;8029;52.202;7.308;2023-03-01T10:11:41;2.43;;;2.23;;
15858;SDS011;8029;52.202;7.308;2023-03-01T10:16:50;2.30;;;2.10;;
15858;SDS011;8029;52.202;7.308;2023-03-01T10:19:32;3.20;;;2.90;;
15858;SDS011;8029;52.202;7.308;2023-03-01T10:24:46;5.00;;;2.90;;
15858;SDS011;8029;52.202;7.308;2023-03-01T10:27:23;3.63;;;3.33;;
15858;SDS011;8029;52.202;7.308;2023-03-01T10:32:22;2.70;;;2.20;;
15858;SDS011;8029;52.202;7.308;2023-03-01T10:34:48;4.90;;;2.80;;
15858;SDS011;8029;52.202;7.308;2023-03-01T10:37:14;4.00;;;3.10;;
15858;SDS011;8029;52.202;7.308;2023-03-01T10:42:29;2.53;;;2.33;;
15858;SDS011;8029;52.202;7.308;2023-03-01T10:44:55;2.87;;;2.57;;
15858;SDS011;8029;52.202;7.308;2023-03-01T10:47:22;2.60;;;2.37;;
15858;SDS011;8029;52.202;7.308;2023-03-01T10:52:26;3.27;;;2.80;;
15858;SDS011;8029;52.202;7.308;2023-03-01T10:54:53;4.00;;;3.20;;
15858;SDS011;8029;52.202;7.308;2023-03-01T11:00:13;4.83;;;3.77;;
15858;SDS011;8029;52.202;7.308;2023-03-01T11:02:46;2.73;;;2.53;;
15858;SDS011;8029;52.202;7.308;2023-03-01T11:07:46;5.37;;;3.37;;
15858;SDS011;8029;52.202;7.308;2023-03-01T11:10:16;2.47;;;2.23;;
15858;SDS011;8029;52.202;7.308;2023-03-01T11:12:42;2.80;;;2.60;;
15858;SDS011;8029;52.202;7.308;2023-03-01T11:15:15;3.73;;;3.10;;
15858;SDS011;8029;52.202;7.308;2023-03-01T11:17:45;4.97;;;2.63;;
15858;SDS011;8029;52.202;7.308;2023-03-01T11:22:45;3.37;;;2.83;;
15858;SDS011;8029;52.202;7.308;2023-03-01T11:25:13;3.77;;;3.17;;
15858;SDS011;8029;52.202;7.308;2023-03-01T11:27:40;3.13;;;2.83;;
15858;SDS011;8029;52.202;7.308;2023-03-01T11:30:26;3.80;;;2.83;;
15858;SDS011;8029;52.202;7.308;2023-03-01T11:35:31;2.13;;;1.97;;
15858;SDS011;8029;52.202;7.308;2023-03-01T11:51:20;3.10;;;2.67;;
15858;SDS011;8029;52.202;7.308;2023-03-01T11:56:29;3.50;;;2.90;;
15858;SDS011;8029;52.202;7.308;2023-03-01T12:01:37;3.43;;;3.03;;
15858;SDS011;8029;52.202;7.308;2023-03-01T12:04:16;4.53;;;3.23;;
15858;SDS011;8029;52.202;7.308;2023-03-01T12:06:55;3.13;;;2.70;;
15858;SDS011;8029;52.202;7.308;2023-03-01T12:09:38;8.27;;;4.37;;
15858;SDS011;8029;52.202;7.308;2023-03-01T12:14:55;2.67;;;2.30;;
15858;SDS011;8029;52.202;7.308;2023-03-01T12:17:29;2.13;;;1.60;;
15858;SDS011;8029;52.202;7.308;2023-03-01T12:22:38;2.57;;;2.37;;
15858;SDS011;8029;52.202;7.308;2023-03-01T12:32:52;6.00;;;3.00;;
15858;SDS011;8029;52.202;7.308;2023-03-01T12:35:34;6.10;;;3.05;;
15858;SDS011;8029;52.202;7.308;2023-03-01T12:40:46;2.05;;;1.70;;
15858;SDS011;8029;52.202;7.308;2023-03-01T12:45:54;10.15;;;2.40;;
15858;SDS011;8029;52.202;7.308;2023-03-01T12:50:52;2.28;;;2.08;;
15858;SDS011;8029;52.202;7.308;2023-03-01T12:53:21;1.77;;;1.67;;
15858;SDS011;8029;52.202;7.308;2023-03-01T12:55:48;2.47;;;2.28;;
15858;SDS011;8029;52.202;7.308;2023-03-01T13:00:52;2.42;;;2.00;;
15858;SDS011;8029;52.202;7.308;2023-03-01T13:10:58;1.92;;;1.83;;
15858;SDS011;8029;52.202;7.308;2023-03-01T13:13:27;2.90;;;1.95;;
15858;SDS011;8029;52.202;7.308;2023-03-01T13:15:53;2.90;;;2.67;;
15858;SDS011;8029;52.202;7.308;2023-03-01T13:20:50;3.70;;;1.92;;
15858;SDS011;8029;52.202;7.308;2023-03-01T13:31:03;1.27;;;1.20;;
15858;SDS011;8029;52.202;7.308;2023-03-01T13:35:58;2.00;;;1.83;;
15858;SDS011;8029;52.202;7.308;2023-03-01T13:38:37;2.42;;;2.22;;
15858;SDS011;8029;52.202;7.308;2023-03-01T13:41:06;2.97;;;2.10;;
15858;SDS011;8029;52.202;7.308;2023-03-01T13:43:40;1.92;;;1.70;;
15858;SDS011;8029;52.202;7.308;2023-03-01T13:48:42;3.83;;;2.20;;
15858;SDS011;8029;52.202;7.308;2023-03-01T13:51:10;2.30;;;2.10;;
15858;SDS011;8029;52.202;7.308;2023-03-01T13:53:38;1.58;;;1.45;;
15858;SDS011;8029;52.202;7.308;2023-03-01T13:58:44;2.00;;;1.88;;
15858;SDS011;8029;52.202;7.308;2023-03-01T14:03:50;2.42;;;2.10;;
15858;SDS011;8029;52.202;7.308;2023-03-01T14:06:17;2.28;;;1.58;;
15858;SDS011;8029;52.202;7.308;2023-03-01T14:08:45;1.98;;;1.50;;
15858;SDS011;8029;52.202;7.308;2023-03-01T14:16:35;4.05;;;2.22;;
15858;SDS011;8029;52.202;7.308;2023-03-01T14:21:30;3.70;;;1.58;;
15858;SDS011;8029;52.202;7.308;2023-03-01T14:23:56;3.17;;;2.00;;
15858;SDS011;8029;52.202;7.308;2023-03-01T14:26:22;1.63;;;1.52;;
15858;SDS011;8029;52.202;7.308;2023-03-01T14:28:49;1.48;;;1.38;;
15858;SDS011;8029;52.202;7.308;2023-03-01T14:33:54;2.78;;;2.00;;
15858;SDS011;8029;52.202;7.308;2023-03-01T14:36:25;6.35;;;2.15;;
15858;SDS011;8029;52.202;7.308;2023-03-01T14:38:52;2.13;;;1.75;;
15858;SDS011;8029;52.202;7.308;2023-03-01T14:41:20;4.13;;;2.10;;
15858;SDS011;8029;52.202;7.308;2023-03-01T14:43:50;3.40;;;1.77;;
15858;SDS011;8029;52.202;7.308;2023-03-01T14:46:19;6.20;;;1.50;;
15858;SDS011;8029;52.202;7.308;2023-03-01T14:48:47;2.60;;;1.65;;
15858;SDS011;8029;52.202;7.308;2023-03-01T14:51:13;2.85;;;1.63;;
15858;SDS011;8029;52.202;7.308;2023-03-01T14:53:39;1.30;;;1.23;;
15858;SDS011;8029;52.202;7.308;2023-03-01T14:56:12;2.03;;;1.35;;
15858;SDS011;8029;52.202;7.308;2023-03-01T14:58:38;1.42;;;1.33;;
15858;SDS011;8029;52.202;7.308;2023-03-01T15:01:05;3.83;;;1.65;;
15858;SDS011;8029;52.202;7.308;2023-03-01T15:06:28;2.22;;;1.83;;
15858;SDS011;8029;52.202;7.308;2023-03-01T15:08:54;2.67;;;1.85;;
15858;SDS011;8029;52.202;7.308;2023-03-01T15:11:31;1.60;;;1.50;;
15858;SDS011;8029;52.202;7.308;2023-03-01T15:13:57;3.70;;;1.73;;
15858;SDS011;8029;52.202;7.308;2023-03-01T15:16:28;2.05;;;1.63;;
15858;SDS011;8029;52.202;7.308;2023-03-01T15:19:05;1.45;;;1.35;;
15858;SDS011;8029;52.202;7.308;2023-03-01T15:21:33;3.83;;;2.03;;
15858;SDS011;8029;52.202;7.308;2023-03-01T15:26:50;5.97;;;2.15;;
15858;SDS011;8029;52.202;7.308;2023-03-01T15:29:19;1.80;;;1.70;;
15858;SDS011;8029;52.202;7.308;2023-03-01T15:31:55;2.08;;;1.65;;
15858;SDS011;8029;52.202;7.308;2023-03-01T15:34:23;1.70;;;1.40;;
15858;SDS011;8029;52.202;7.308;2023-03-01T15:36:50;3.20;;;1.50;;
15858;SDS011;8029;52.202;7.308;2023-03-01T15:39:26;1.40;;;1.30;;
15858;SDS011;8029;52.202;7.308;2023-03-01T15:41:56;1.92;;;1.50;;
15858;SDS011;8029;52.202;7.308;2023-03-01T15:46:51;1.38;;;1.33;;
15858;SDS011;8029;52.202;7.308;2023-03-01T15:51:50;1.38;;;1.27;;
15858;SDS011;8029;52.202;7.308;2023-03-01T15:54:18;2.35;;;1.67;;
15858;SDS011;8029;52.202;7.308;2023-03-01T15:56:45;1.33;;;1.23;;
15858;SDS011;8029;52.202;7.308;2023-03-01T15:59:11;2.15;;;1.67;;
15858;SDS011;8029;52.202;7.308;2023-03-01T16:01:39;2.25;;;1.35;;
15858;SDS011;8029;52.202;7.308;2023-03-01T16:04:05;5.82;;;1.80;;
15858;SDS011;8029;52.202;7.308;2023-03-01T16:06:31;1.38;;;1.20;;
15858;SDS011;8029;52.202;7.308;2023-03-01T16:08:57;1.20;;;1.15;;
15858;SDS011;8029;52.202;7.308;2023-03-01T16:11:23;4.95;;;2.45;;
15858;SDS011;8029;52.202;7.308;2023-03-01T16:13:48;2.15;;;1.88;;
15858;SDS011;8029;52.202;7.308;2023-03-01T16:16:15;2.08;;;1.50;;
15858;SDS011;8029;52.202;7.308;2023-03-01T16:18:42;1.45;;;1.33;;
15858;SDS011;8029;52.202;7.308;2023-03-01T16:21:10;1.48;;;1.35;;
15858;SDS011;8029;52.202;7.308;2023-03-01T16:23:37;1.20;;;1.10;;
15858;SDS011;8029;52.202;7.308;2023-03-01T16:26:03;1.27;;;1.13;;
15858;SDS011;8029;52.202;7.308;2023-03-01T16:28:29;1.73;;;1.63;;
15858;SDS011;8029;52.202;7.308;2023-03-01T16:30:55;2.13;;;1.40;;
15858;SDS011;8029;52.202;7.308;2023-03-01T16:33:21;1.83;;;1.65;;
15858;SDS011;8029;52.202;7.308;2023-03-01T16:35:47;1.10;;;1.10;;
15858;SDS011;8029;52.202;7.308;2023-03-01T16:38:14;2.58;;;2.25;;
15858;SDS011;8029;52.202;7.308;2023-03-01T16:40:40;2.70;;;2.22;;
15858;SDS011;8029;52.202;7.308;2023-03-01T16:43:12;3.40;;;2.47;;
15858;SDS011;8029;52.202;7.308;2023-03-01T16:45:38;1.50;;;1.40;;
15858;SDS011;8029;52.202;7.308;2023-03-01T16:48:06;5.07;;;1.88;;
15858;SDS011;8029;52.202;7.308;2023-03-01T16:50:32;2.05;;;1.50;;
15858;SDS011;8029;52.202;7.308;2023-03-01T16:52:58;1.50;;;1.40;;
15858;SDS011;8029;52.202;7.308;2023-03-01T16:55:24;1.58;;;1.48;;
15858;SDS011;8029;52.202;7.308;2023-03-01T16:57:50;1.60;;;1.50;;
15858;SDS011;8029;52.202;7.308;2023-03-01T17:00:16;2.95;;;1.90;;
15858;SDS011;8029;52.202;7.308;2023-03-01T17:02:42;1.45;;;1.38;;
15858;SDS011;8029;52.202;7.308;2023-03-01T17:05:08;2.63;;;2.03;;
15858;SDS011;8029;52.202;7.308;2023-03-01T17:07:36;1.42;;;1.33;;
15858;SDS011;8029;52.202;7.308;2023-03-01T17:10:03;1.02;;;0.95;;
15858;SDS011;8029;52.202;7.308;2023-03-01T17:12:29;1.55;;;1.45;;
15858;SDS011;8029;52.202;7.308;2023-03-01T17:14:57;0.98;;;0.98;;
15858;SDS011;8029;52.202;7.308;2023-03-01T17:17:23;2.03;;;1.85;;
15858;SDS011;8029;52.202;7.308;2023-03-01T17:19:49;1.63;;;1.52;;